createdAt,value
2019-04-28T00:03:56.000Z,1007.287
2019-04-28T00:13:56.000Z,1007.253
2019-04-28T00:23:56.000Z,1007.229
2019-04-28T00:33:56.000Z,1007.251
2019-04-28T00:43:58.000Z,1007.262
2019-04-28T00:53:56.000Z,1007.182
2019-04-28T01:03:56.000Z,1007.151
2019-04-28T01:13:56.000Z,1007.123
2019-04-28T01:23:56.000Z,1007.111
2019-04-28T01:33:58.000Z,1007.137
2019-04-28T01:43:57.000Z,1007.089
2019-04-28T01:53:58.000Z,1007.159
2019-04-28T02:03:57.000Z,1007.222
2019-04-28T02:13:57.000Z,1007.239
2019-04-28T02:23:59.000Z,1007.296
2019-04-28T02:33:57.000Z,1007.371
2019-04-28T02:43:57.000Z,1007.475
2019-04-28T02:53:59.000Z,1007.627
2019-04-28T03:03:57.000Z,1007.653
2019-04-28T03:13:57.000Z,1007.677
2019-04-28T03:23:57.000Z,1007.735
2019-04-28T03:33:57.000Z,1007.774
2019-04-28T03:43:59.000Z,1007.821
2019-04-28T03:53:57.000Z,1007.917
2019-04-28T04:03:57.000Z,1007.965
2019-04-28T04:13:57.000Z,1007.974
2019-04-28T04:23:57.000Z,1008.017
2019-04-28T04:33:57.000Z,1008.088
2019-04-28T04:43:58.000Z,1008.167
2019-04-28T04:53:58.000Z,1008.21
2019-04-28T05:03:57.000Z,1008.304
2019-04-28T05:13:58.000Z,1008.356
2019-04-28T05:23:57.000Z,1008.435
2019-04-28T05:33:57.000Z,1008.479
2019-04-28T05:43:57.000Z,1008.574
2019-04-28T05:53:57.000Z,1008.677
2019-04-28T06:03:57.000Z,1008.762
2019-04-28T06:13:57.000Z,1008.763
2019-04-28T06:23:57.000Z,1008.82
2019-04-28T06:33:57.000Z,1008.914
2019-04-28T06:43:59.000Z,1009.052
2019-04-28T06:53:57.000Z,1009.183
2019-04-28T07:13:57.000Z,1009.345
2019-04-28T07:23:57.000Z,1009.36
2019-04-28T07:33:57.000Z,1009.41
2019-04-28T07:43:57.000Z,1009.446
2019-04-28T07:53:57.000Z,1009.572
2019-04-28T08:03:57.000Z,1009.618
2019-04-28T08:13:57.000Z,1009.653
2019-04-28T08:23:58.000Z,1009.622
2019-04-28T08:33:57.000Z,1009.669
2019-04-28T08:43:57.000Z,1009.786
2019-04-28T08:53:57.000Z,1009.906
2019-04-28T09:03:57.000Z,1010.082
2019-04-28T09:13:59.000Z,1010.29
2019-04-28T09:33:57.000Z,1010.423
2019-04-28T09:43:57.000Z,1010.461
2019-04-28T09:53:57.000Z,1010.481
2019-04-28T10:03:57.000Z,1010.426
2019-04-28T10:13:58.000Z,1010.486
2019-04-28T10:23:57.000Z,1010.521
2019-04-28T10:33:58.000Z,1010.537
2019-04-28T10:53:58.000Z,1010.483
2019-04-28T11:03:58.000Z,1010.699
2019-04-28T11:13:58.000Z,1010.735
2019-04-28T11:23:58.000Z,1010.675
2019-04-28T11:33:58.000Z,1010.69
2019-04-28T11:43:58.000Z,1010.632
2019-04-28T11:53:58.000Z,1010.533
2019-04-28T12:03:58.000Z,1010.537
2019-04-28T12:13:58.000Z,1010.573
2019-04-28T12:23:58.000Z,1010.573
2019-04-28T12:33:58.000Z,1010.632
2019-04-28T12:43:59.000Z,1010.666
2019-04-28T12:53:58.000Z,1010.73
2019-04-28T13:03:58.000Z,1010.993
2019-04-28T13:13:58.000Z,1011.285
2019-04-28T13:33:58.000Z,1011.4
2019-04-28T13:53:58.000Z,1011.475
2019-04-28T14:03:58.000Z,1011.485
2019-04-28T14:13:58.000Z,1011.482
2019-04-28T14:33:58.000Z,1011.482
2019-04-28T14:43:58.000Z,1011.571
2019-04-28T14:53:58.000Z,1011.531
2019-04-28T15:03:59.000Z,1011.616
2019-04-28T15:13:58.000Z,1011.554
2019-04-28T15:23:58.000Z,1011.644
2019-04-28T15:34:00.000Z,1011.764
2019-04-28T15:43:58.000Z,1011.803
2019-04-28T15:53:58.000Z,1011.899
2019-04-28T16:03:58.000Z,1011.912
2019-04-28T16:13:58.000Z,1011.924
2019-04-28T16:23:58.000Z,1011.944
2019-04-28T16:33:58.000Z,1012.017
2019-04-28T16:44:02.000Z,1011.998
2019-04-28T16:53:58.000Z,1012.104
2019-04-28T17:03:58.000Z,1012.27
2019-04-28T17:13:58.000Z,1012.421
2019-04-28T17:23:58.000Z,1012.431
2019-04-28T17:33:58.000Z,1012.448
2019-04-28T17:43:59.000Z,1012.513
2019-04-28T17:53:58.000Z,1012.48
2019-04-28T18:03:59.000Z,1012.705
2019-04-28T18:23:58.000Z,1012.939
2019-04-28T18:33:58.000Z,1013.192
2019-04-28T18:43:59.000Z,1013.341
2019-04-28T18:53:59.000Z,1013.472
2019-04-28T19:03:59.000Z,1013.626
2019-04-28T19:14:02.000Z,1013.718
2019-04-28T19:24:01.000Z,1013.8
2019-04-28T19:34:00.000Z,1013.879
2019-04-28T19:43:59.000Z,1014.065
2019-04-28T19:53:59.000Z,1014.228
2019-04-28T20:03:59.000Z,1014.273
2019-04-28T20:13:59.000Z,1014.344
2019-04-28T20:23:59.000Z,1014.376
2019-04-28T20:33:59.000Z,1014.5
2019-04-28T20:43:59.000Z,1014.555
2019-04-28T20:53:59.000Z,1014.524
2019-04-28T21:03:59.000Z,1014.553
2019-04-28T21:14:01.000Z,1014.597
2019-04-28T21:23:59.000Z,1014.642
2019-04-28T21:33:59.000Z,1014.67
2019-04-28T21:43:59.000Z,1014.778
2019-04-28T21:54:00.000Z,1014.741
2019-04-28T22:03:59.000Z,1014.785
2019-04-28T22:13:59.000Z,1014.823
2019-04-28T22:23:59.000Z,1014.925
2019-04-28T22:33:59.000Z,1015.042
2019-04-28T22:43:59.000Z,1015.173
2019-04-28T22:53:59.000Z,1015.209
2019-04-28T23:03:59.000Z,1015.346
2019-04-28T23:13:59.000Z,1015.363
2019-04-28T23:23:59.000Z,1015.43
2019-04-28T23:33:59.000Z,1015.432
2019-04-28T23:43:59.000Z,1015.497
2019-04-28T23:53:59.000Z,1015.527
